Archival Weather

Southern Wisconsin Rgnl

Janesville, Wisconsin (KJVL)

Report from: Wednesday, December 6, 2023 1:55 AM CST
Current time: Sunday, February 25, 2024 3:37 PM CST

Current weather – Weather history – Daily summaries
Weather forecast

Temperature1.0°C (33.8°F)
Wind chill-2.4°C (27.7°F)
Dew point-3.0°C (26.6°F)
Winds 6 kts (3.1 m/s, 6.9 mph) West-Northwest (300°)
Visibility10 mi. (16.1 km)
Clouds Ceiling: Overcast 2,700 ft. (823 m)
Altimeter30.25 in.Hg (1024 mB)
Relative humidity75 %
Density altitude-2,009 ft. (-612 m)
Remarks Fully automated report
Automated weather observing station with precipitation discriminator
Flight conditions Marginal Visual Meteorological Conditions
Raw dataKJVL 060755Z AUTO 30006KT 10SM OVC027 01/M03 A3025 RMK AO2
An error has occurred. This application may no longer respond until reloaded. Reload 🗙